x

8419317 - Wells, Me (welm1) Weather Station

9:54 - Mon 28th Jul 2014 All times are EDT. -4 hours from GMT.

  • Wind
    1mph, 5mph gusts
  • Sea Temp 56°f
  • Aire Temp 65°f
  • Sea Pressure 997.7mb
  • 8419317 - Wells, Me
  • 8419317 - Wells, Me

More Historic Weather Station data

Upgrade to MSW Pro to gain access to the past 30 days of data for over 8000 Wavebouys and Weather Stations around the globe.

Join Pro

Comparision Forecast

View Surf forecast
   
lun 07/28 9:54 1 5 mph 997.7mb 56f 65f
9:48 3 5 mph 997.7mb 57f 65f
9:42 3 6 mph 997.6mb 57f 65f
9:36 3 5 mph 997.6mb 57f 65f
9:30 2 3 mph 997.7mb 58f 64f
9:24 3 5 mph 997.7mb 58f 64f
9:18 6
mph
997.7mb 59f 64f
9:12 7 9 mph 997.6mb 61f 64f
9:06 7 10 mph 997.6mb 62f 64f
9:00 11 13 mph 997.6mb 63f 64f
8:54 9 10 mph 997.2mb 63f 64f
8:48 9 11 mph 997.1mb 63f 64f
8:42 7 8 mph 996.9mb 63f 65f
8:36 8 9 mph 996.9mb 63f 65f
8:30 8 9 mph 997mb 63f 65f
8:24 6 7 mph 997.1mb 62f 65f
8:18 5 6 mph 997.1mb 63f 66f
8:12 3
mph
997mb 63f 66f
8:06 2 3 mph 996.8mb 63f 67f
8:00 2 6 mph 996.6mb 62f 67f
7:54 5 6 mph 996.9mb 62f 67f
7:48 5 8 mph 997.2mb 62f 66f
7:42 7 10 mph 997.5mb 62f 67f
7:36 5 7 mph 997.5mb 62f 67f
7:30 3 8 mph 997.3mb 62f 67f
7:24 6 13 mph 997.4mb 62f 67f
7:18 9 25 mph 997.7mb 62f 67f
7:12 23 37 mph 998.2mb 62f 67f
7:06 17 20 mph 997.7mb 62f 68f
7:00 11 14 mph 996.8mb 62f 67f
6:54 10 13 mph 996.9mb 62f 67f
6:48 10 13 mph 996.3mb 62f 66f
6:42 9 14 mph 996.3mb 62f 66f
6:36 13 15 mph 996.5mb 62f 66f
6:30 11 14 mph 996.2mb 62f 65f
6:24 10 11 mph 996.3mb 62f 65f
6:18 10 13 mph 996.3mb 62f 65f
6:12 13 16 mph 996.4mb 62f 66f
6:06 13 14 mph 996.5mb 62f 66f
6:00 11 14 mph 996.5mb 62f 67f
5:54 10 13 mph 996.6mb 62f 66f
5:48 11 14 mph 996.6mb 62f 66f
5:42 11 15 mph 996.6mb 62f 66f
5:36 14 16 mph 996.7mb 62f 67f
5:30 13 17 mph 996.8mb 62f 67f
5:24 15 17 mph 996.9mb 62f 67f
5:18 15 16 mph 997mb 61f 67f
5:12 13 16 mph 996.7mb 61f 67f
5:06 14 17 mph 996.8mb 61f 67f
5:00 15 20 mph 996.9mb 61f 67f
4:54 15 20 mph 997mb 61f 68f
4:48 14 17 mph 997.1mb 61f 67f
4:42 13 16 mph 997mb 61f 67f
4:36 13 15 mph 997.1mb 60f 67f
4:30 11 18 mph 997.2mb 60f 67f
4:24 16 22 mph 997.3mb 60f 68f
4:18 18 21 mph 997.5mb 60f 68f
4:12 17 21 mph 997.5mb 60f 68f
4:06 13 15 mph 997.5mb 60f 67f
4:00 13 15 mph 997.5mb 60f 68f
3:54 11 15 mph 997.5mb 60f 68f
3:48 11 15 mph 997.6mb 60f 68f
3:42 13 18 mph 997.6mb 60f 68f
3:36 13 15 mph 997.6mb 60f 68f
3:30 11 14 mph 997.8mb 59f 66f
3:24 10 14 mph 997.8mb 59f 66f
3:18 10 14 mph 997.8mb 59f 66f
3:12 11 14 mph 997.9mb 59f 66f
3:06 11 14 mph 998mb 59f 66f
3:00 10 14 mph 998mb 59f 66f
2:54 10 15 mph 998mb 59f 66f
2:48 11 17 mph 998.2mb 59f 66f
2:42 14 17 mph 998.2mb 58f 66f
2:36 13 16 mph 998.3mb 58f 66f
2:30 13 16 mph 998.4mb 58f 66f
2:24 11 15 mph 998.3mb 58f 66f
2:18 11 15 mph 998.4mb 58f 66f
2:12 13 14 mph 998.4mb 58f 66f
2:06 10 15 mph 998.5mb 58f 66f
2:00 9 13 mph 998.5mb 58f 66f
1:54 10 14 mph 998.5mb 58f 66f
1:48 13 15 mph 998.7mb 58f 67f
1:42 13 20 mph 998.7mb 58f 67f
1:36 15 20 mph 998.9mb 58f 67f
1:30 15 18 mph 999.1mb 58f 67f
1:24 15 20 mph 999.1mb 58f 67f
1:18 14 18 mph 999.2mb 58f 66f
1:12 13 15 mph 999.1mb 58f 65f
1:06 13 18 mph 999.2mb 58f 65f
1:00 13 17 mph 999.3mb 58f 65f
12:54 14 18 mph 999.5mb 58f 65f
12:48 15 18 mph 999.5mb 58f 65f
12:42 13 16 mph 999.5mb 58f 65f
12:36 14 17 mph 999.6mb 58f 65f
12:30 16 21 mph 999.7mb 58f 65f
12:24 17 23 mph 999.9mb 58f 65f
12:18 16 26 mph 999.9mb 58f 66f
12:12 11 20 mph 999.9mb 58f 66f
12:06 15 20 mph 1000mb 58f 66f
12:00 11 16 mph 1000mb 58f 65f
11:54 13 16 mph 1000mb 58f 65f
11:48 14 16 mph 1000mb 58f 65f
11:42 9 15 mph 1000.2mb 58f 65f
11:36 15 17 mph 1000.4mb 58f 65f
11:30 9 13 mph 999.8mb 58f 64f
11:24 5 8 mph 1000mb 58f 64f
11:18 3 6 mph 1000.3mb 58f 64f
11:12 2 3 mph 1000.7mb 58f 65f
11:06 3 6 mph 1000.8mb 58f 66f
11:00 6 9 mph 1000.7mb 58f 66f
10:54 6 9 mph 1000.7mb 58f 66f
10:48 7 16 mph 1000.9mb 58f 66f
10:42 9 16 mph 1001.1mb 58f 66f
10:36 6 11 mph 1001.2mb 58f 66f
10:30  -  5 mph 1001mb 58f 65f
10:24 1 6 mph 1001.2mb 58f 65f
10:18 3 7 mph 1001.5mb 58f 64f
10:12 2 6 mph 1001.5mb 57f 63f
10:06 1 5 mph 1001.6mb 58f 64f
10:00 2
mph
1001.5mb 58f 63f
9:54  -  5 mph 1001.7mb 57f 63f
9:48 3 9 mph 1001.7mb 57f 63f
9:42 7 11 mph 1001.3mb 57f 63f
9:36 8 11 mph 1001.3mb 57f 63f
9:30 9 11 mph 1001.5mb 58f 64f
9:24 9 15 mph 1001.7mb 58f 64f
9:18 13 16 mph 1001.4mb 59f 64f
9:12 11 15 mph 1001.5mb 59f 64f
9:06 11 15 mph 1001.6mb 59f 64f
9:00 9 11 mph 1002.1mb 59f 64f
8:54 8 10 mph 1002.1mb 58f 65f
8:48 8 10 mph 1002.1mb 58f 65f
8:42 7 9 mph 1002.1mb 58f 65f
8:36 7 10 mph 1002.2mb 58f 64f
8:30 7 9 mph 1002.3mb 58f 64f
8:24 7 9 mph 1002.5mb 58f 64f
8:18 7 10 mph 1002.6mb 58f 63f
8:12 8 10 mph 1002.7mb 58f 63f
8:06 7 9 mph 1002.6mb 57f 62f
8:00 5 7 mph 1002.8mb 57f 62f
7:54 5 7 mph 1002.8mb 57f 62f
7:48 5 7 mph 1002.8mb 57f 62f
7:42 7 11 mph 1003mb 57f 62f
7:36 7 9 mph 1003mb 57f 64f
7:30 8
mph
1003mb 57f 64f
7:24 1 2 mph 1002.6mb 57f 65f
7:18 2
mph
1002.5mb 57f 65f
7:12 2 3 mph 1002.3mb 57f 65f
7:06 3 5 mph 1002.2mb 57f 65f
7:00 5 6 mph 1002.1mb 57f 64f
6:54 5
mph
1002.3mb 57f 64f
6:48 3
mph
1002.4mb 57f 64f
6:42 2 3 mph 1002.5mb 57f 64f
6:36 2 3 mph 1002.6mb 57f 64f
6:30 2 3 mph 1002.7mb 57f 64f
6:24 3 5 mph 1002.7mb 57f 63f
6:18 5
mph
1002.7mb 57f 63f
6:12 3
mph
1002.9mb 56f 63f
6:06 3 5 mph 1002.9mb 56f 63f
6:00 2 3 mph 1003.2mb 56f 63f
5:54 3
mph
1003.2mb 56f 63f
5:48 3
mph
1003.1mb 56f 62f
5:42 2
mph
1003.2mb 56f 62f
5:36 2
mph
1003.2mb 56f 62f
5:30 2
mph
1003.3mb 56f 62f
5:24 1
mph
1003.3mb 56f 62f
5:18  -  1 mph 1003.3mb 56f 62f
5:12 1 2 mph 1003.2mb 56f 62f
5:06 2 5 mph 1003.2mb 56f 63f
5:00 3 5 mph 1003.3mb 56f 63f
4:54 5 6 mph 1003.2mb 57f 63f
4:48 3 5 mph 1003.3mb 56f 62f
4:42 2 5 mph 1003.3mb 57f 62f
4:36 5 6 mph 1003.3mb 56f 62f
4:30 3 5 mph 1003.2mb 56f 62f
4:24  -  3 mph 1003mb 56f 63f
4:18  -  2 mph 1002.9mb 56f 63f
4:12 2 3 mph 1002.8mb 56f 63f
4:06 3
mph
1002.7mb 56f 62f
4:00 2 3 mph 1002.8mb 56f 62f
3:54 1 2 mph 1002.9mb 56f 63f
3:48  -  3 mph 1002.7mb 55f 62f
3:42 1 5 mph 1002.5mb 55f 63f
3:36 3
mph
1002.7mb 55f 63f
3:30 2
mph
1002.4mb 55f 63f
3:24 2 3 mph 1002.5mb 55f 63f
3:18 3
mph
1002.5mb 55f 63f
3:12 2 3 mph 1002.8mb 55f 63f
3:06 2
mph
1003mb 55f 62f
3:00 2 3 mph 1003.1mb 55f 62f
2:54  -  1 mph 1003.2mb 55f 62f
2:48 2 3 mph 1003.3mb 55f 62f
2:42 1 2 mph 1003.4mb 55f 62f
2:36 1 5 mph 1003.5mb 55f 62f
2:30 6 8 mph 1003.6mb 55f 62f
2:24 2
mph
1003.4mb 55f 63f
2:18 2
mph
1003.3mb 55f 63f
2:12 2
mph
1003.4mb 55f 63f
2:06 1 3 mph 1003.4mb 55f 63f
2:00 3
mph
1003.2mb 55f 63f
1:54 5
mph
1003.2mb 55f 63f
1:48 3 5 mph 1003.2mb 55f 62f
1:42 3
mph
1003.2mb 56f 62f
1:36 1 2 mph 1003.3mb 55f 62f
1:30 1 2 mph 1003.3mb 55f 62f
1:24  -  2 mph 1003.4mb 55f 62f
1:18 1 2 mph 1003.6mb 55f 62f
1:12 1 3 mph 1003.6mb 55f 62f
1:06 5
mph
1003.6mb 55f 62f
1:00 6
mph
1004mb 56f 62f
12:54 1 5 mph 1004mb 56f 62f
12:48 2 3 mph 1004.1mb 56f 62f
12:42  -  2 mph 1003.8mb 56f 62f
12:36 1 3 mph 1003.8mb 56f 62f
12:30  -  1 mph 1004mb 56f 62f
12:24  -  3 mph 1004.1mb 56f 62f
12:18 1 2 mph 1004.2mb 56f 62f
12:12  -  1 mph 1004.2mb 55f 62f
12:06  -  1 mph 1004.1mb 55f 62f
12:00 1 2 mph 1004mb 55f 62f
dom 07/27 11:54 2 3 mph 1004.2mb 55f 62f
11:48 2
mph
1004.1mb 55f 62f
11:42 2 5 mph 1004.1mb 55f 62f
11:36 3
mph
1004.1mb 55f 62f
11:30 3
mph
1003.9mb 55f 63f
11:24 2
mph
1003.8mb 55f 63f
11:18 1
mph
1003.9mb 55f 63f
11:12 1
mph
1004.1mb 55f 63f
11:06  -  2 mph 1004.2mb 54f 62f
11:00 1 2 mph 1004.3mb 54f 62f
10:54 1 2 mph 1004.3mb 54f 62f
10:48 1 2 mph 1004.4mb 54f 62f
10:42  -  1 mph 1004.5mb 54f 62f
10:36  -  2 mph 1004.5mb 54f 62f
10:30 1 2 mph 1004.7mb 55f 62f
10:24 2 3 mph 1004.7mb 54f 62f
10:18 2
mph
1004.7mb 54f 62f
10:12 3 5 mph 1004.7mb 54f 62f
10:06 5 6 mph 1004.4mb 54f 63f
10:00 6 7 mph 1004.3mb 54f 63f
9:54 6 8 mph 1004.5mb 54f 64f
9:48 3 6 mph 1004.7mb 54f 64f
9:42  -  3 mph 1004.8mb 54f 63f
9:36 3 5 mph 1004.7mb 54f 63f
9:30 1 2 mph 1004.6mb 55f 62f
9:24 1 3 mph 1004.7mb 55f 62f
9:18 3 6 mph 1004.9mb 55f 63f
9:12 5 6 mph 1004.7mb 55f 63f
9:06 6 8 mph 1004.7mb 56f 63f
9:00 6 7 mph 1004.8mb 56f 63f
8:54 5 6 mph 1004.6mb 57f 63f
8:48 5 6 mph 1004.6mb 57f 64f
8:42 3
mph
1004.5mb 58f 64f
8:36 2
mph
1004.5mb 59f 64f
8:30 3 6 mph 1004.3mb 60f 64f
8:24 5 6 mph 1004.2mb 63f 64f
8:18 6 7 mph 1004.2mb 63f 64f
8:12 6 8 mph 1004.3mb 63f 64f
8:06 7 8 mph 1004.3mb 63f 64f
8:00 6 9 mph 1004.4mb 63f 64f
7:54 8 10 mph 1004.5mb 63f 64f
7:48 8 9 mph 1004.4mb 62f 64f
7:42 7 9 mph 1004.6mb 62f 64f
7:36 8 11 mph 1004.4mb 63f 64f
7:30 8 9 mph 1004.5mb 63f 64f
7:24 8 13 mph 1004.5mb 63f 64f
7:18 10 14 mph 1004.6mb 63f 65f
7:12 10 13 mph 1004.5mb 63f 65f
7:06 10 14 mph 1004.5mb 63f 65f
7:00 11 15 mph 1004.6mb 63f 66f
6:54 11 16 mph 1004.6mb 63f 66f
6:48 9 11 mph 1004.6mb 62f 66f
6:42 10 14 mph 1004.6mb 62f 65f
6:36 11 15 mph 1004.5mb 62f 66f
6:30 11 15 mph 1004.6mb 62f 66f
6:24 11 16 mph 1004.7mb 62f 66f
6:18 13 16 mph 1004.7mb 62f 65f
6:12 13 15 mph 1004.6mb 62f 65f
6:06 13 17 mph 1004.5mb 62f 65f
6:00 15 17 mph 1004.6mb 62f 65f
5:54 14 18 mph 1004.5mb 62f 65f
5:48 16 21 mph 1004.6mb 62f 65f
5:42 16 18 mph 1004.7mb 62f 66f
5:36 14 16 mph 1005mb 62f 66f
5:30 14 18 mph 1005mb 62f 66f
5:24 16 20 mph 1005mb 62f 66f
5:18 17 20 mph 1005.1mb 62f 66f
5:12 16 20 mph 1005.2mb 62f 66f
5:06 15 21 mph 1005.2mb 62f 66f
5:00 18 22 mph 1005.4mb 62f 66f
4:54 16 18 mph 1005.4mb 61f 66f
4:48 15 17 mph 1005.4mb 61f 65f
4:42 13 16 mph 1005.4mb 61f 65f
4:36 14 17 mph 1005.4mb 61f 65f
4:30 14 16 mph 1005.5mb 61f 65f
4:24 13 16 mph 1005.6mb 61f 65f
4:18 15 18 mph 1005.6mb 60f 65f
4:12 16 21 mph 1005.5mb 60f 66f
4:06 20 24 mph 1005.7mb 60f 66f
4:00 17 21 mph 1005.8mb 60f 66f
3:54 17 20 mph 1005.8mb 60f 66f
3:48 14 16 mph 1005.7mb 60f 65f
3:42 15 18 mph 1005.8mb 60f 65f
3:36 15 18 mph 1005.9mb 59f 66f
3:30 15 17 mph 1006mb 59f 65f
3:24 14 17 mph 1006.1mb 59f 65f
3:18 15 18 mph 1006.2mb 59f 65f
3:12 16 18 mph 1006.1mb 59f 67f
3:06 13 15 mph 1006.2mb 58f 65f
3:00 13 16 mph 1006.1mb 58f 66f
2:54 10 13 mph 1006.1mb 58f 65f
2:48 10 13 mph 1006.3mb 58f 65f
2:42 10 13 mph 1006.3mb 58f 66f
2:36 10 11 mph 1006.2mb 58f 65f
2:30 7 9 mph 1006.2mb 58f 65f
2:24 8 11 mph 1006.1mb 58f 65f
2:18 9 13 mph 1006.4mb 57f 65f
2:12 13 14 mph 1006.7mb 57f 65f
2:06 14 15 mph 1006.4mb 57f 65f
2:00 11 14 mph 1006.1mb 57f 64f
1:54 13 14 mph 1006.2mb 57f 65f
1:48 11 13 mph 1006.3mb 57f 65f
1:42 10 11 mph 1006.4mb 56f 65f
1:36 13
mph
1006.5mb 57f 65f
1:30 11 13 mph 1006.6mb 57f 65f
1:24 11 16 mph 1006.6mb 57f 65f
1:18 15 18 mph 1006.7mb 56f 65f
1:12 17 21 mph 1006.7mb 56f 65f
1:06 17 20 mph 1006.8mb 56f 64f
1:00 16 18 mph 1006.8mb 56f 64f
12:54 14 17 mph 1006.8mb 57f 64f
12:48 14 16 mph 1006.9mb 57f 65f
12:42 13 15 mph 1006.9mb 57f 65f
12:36 11 14 mph 1006.9mb 57f 65f
12:30 11 14 mph 1007.2mb 57f 65f
12:24 13 16 mph 1007.2mb 57f 65f
12:18 13 14 mph 1007.3mb 57f 65f
12:12 11 14 mph 1007.1mb 57f 65f
12:06 10 13 mph 1007.2mb 57f 65f
12:00 11 14 mph 1007.2mb 57f 65f
11:54 13 16 mph 1007.4mb 57f 65f
11:48 13 16 mph 1007.4mb 57f 65f
11:42 13 16 mph 1007.3mb 57f 65f
11:36 13 15 mph 1007.4mb 57f 65f
11:30 14 17 mph 1007.5mb 57f 65f
11:24 14 16 mph 1007.4mb 57f 66f
11:18 13 14 mph 1007.4mb 57f 67f
11:12 10 13 mph 1007.3mb 57f 67f
11:06 9 11 mph 1007.3mb 57f 66f
11:00 9 11 mph 1007.4mb 58f 65f
10:54 8 13 mph 1007.6mb 58f 65f
10:48 10 15 mph 1007.7mb 58f 65f
10:42 14 15 mph 1007.7mb 58f 65f
10:36 13 16 mph 1007.7mb 58f 65f
10:30 14 18 mph 1007.8mb 58f 65f
10:24 15 18 mph 1007.9mb 58f 65f
10:18 14 16 mph 1007.8mb 59f 65f
10:12 14 16 mph 1007.8mb 59f 66f
10:06 14 16 mph 1007.9mb 59f 66f
10:00 13 17 mph 1007.9mb 59f 65f
9:54 13 16 mph 1008.1mb 59f 65f
9:48 14 16 mph 1008.2mb 59f 65f
9:42 13 15 mph 1008.2mb 59f 65f
9:36 11 14 mph 1008.2mb 59f 65f
9:30 13 14 mph 1008.2mb 59f 65f
9:24 14 15 mph 1008.4mb 59f 64f
9:18 13 14 mph 1008.5mb 59f 65f
9:12 10 14 mph 1008.6mb 60f 65f
9:06 13 14 mph 1008.7mb 60f 65f
9:00 13 14 mph 1008.7mb 60f 66f
8:54 10 14 mph 1008.7mb 60f 66f
8:48 10 14 mph 1008.8mb 61f 67f
8:42 11 13 mph 1008.8mb 62f 67f
8:36 10 11 mph 1008.7mb 62f 66f
8:30 10 14 mph 1008.7mb 62f 67f
8:24 10 11 mph 1008.9mb 62f 67f
8:18 11 13 mph 1008.9mb 62f 67f
8:12 10 11 mph 1008.8mb 62f 67f
8:06 8 9 mph 1008.9mb 62f 67f
8:00 8 9 mph 1008.9mb 62f 67f
7:54 8 9 mph 1008.9mb 62f 66f
7:48 7 11 mph 1009mb 62f 65f
7:42 13 14 mph 1009mb 62f 64f
7:36 9 10 mph 1008.8mb 61f 64f
7:30 10 14 mph 1008.8mb 61f 64f
7:24 10 11 mph 1008.8mb 61f 64f
7:18 9 10 mph 1008.8mb 61f 64f
7:12 7 8 mph 1008.7mb 61f 64f
7:06 6 7 mph 1008.6mb 61f 63f
7:00 6 7 mph 1008.8mb 61f 63f
6:54 5 6 mph 1008.9mb 61f 64f
6:48 2
mph
1009mb 61f 65f
6:42 1 2 mph 1009.1mb 61f 64f
6:36 1 2 mph 1009.3mb 61f 64f
6:30 1 2 mph 1009.2mb 61f 64f
6:24 1 3 mph 1009mb 61f 64f
6:18  -  2 mph 1009.1mb 61f 64f
6:12  -  1 mph 1009mb 61f 64f
6:06  -  1 mph 1009mb 60f 63f
6:00  -  2 mph 1009.1mb 60f 64f
5:54 1 3 mph 1009.1mb 60f 64f
5:48 3
mph
1009.3mb 60f 64f
5:42 3
mph
1009.2mb 60f 63f
5:36 2
mph
1009.4mb 60f 63f
5:30 2
mph
1009.3mb 60f 63f
5:24 1
mph
1009.4mb 60f 62f
5:18  -  1 mph 1009.4mb 60f 63f
5:12  -  1 mph 1009.4mb 60f 63f
5:06 1 2 mph 1009.4mb 60f 63f
5:00 2
mph
1009.4mb 60f 63f
4:54 2 3 mph 1009.5mb 60f 63f
4:48 3
mph
1009.5mb 60f 63f
4:42 2
mph
1009.4mb 60f 63f
4:36 2
mph
1009.4mb 60f 63f
4:30 2 3 mph 1009.4mb 60f 64f
4:24 2 3 mph 1009.5mb 60f 64f
4:18 3 5 mph 1009.4mb 60f 64f
4:12 3 5 mph 1009.5mb 60f 64f
4:06 5 6 mph 1009.4mb 60f 64f
4:00 5 6 mph 1009.6mb 60f 64f
3:54 3 5 mph 1009.6mb 60f 64f
3:48 2 6 mph 1009.7mb 60f 64f
3:42 6
mph
1009.6mb 60f 64f
3:36 6
mph
1009.5mb 60f 64f
3:30 2 3 mph 1009.5mb 60f 65f
3:24 2 6 mph 1009.4mb 59f 66f
3:18 3 7 mph 1009.4mb 59f 66f
3:12 5 7 mph 1009.4mb 59f 66f
3:06 5 9 mph 1009.4mb 59f 66f
3:00 6 9 mph 1009.5mb 59f 66f
2:54 6 9 mph 1009.4mb 59f 66f
2:48 7 10 mph 1009.5mb 59f 67f
2:42 7 10 mph 1009.6mb 59f 67f
2:36 8 10 mph 1009.5mb 58f 67f
2:30 7 13 mph 1009.6mb 58f 67f
2:24 6 10 mph 1009.7mb 58f 67f
2:18 6 10 mph 1009.8mb 58f 67f
2:12 7 10 mph 1009.9mb 58f 67f
2:06 7 10 mph 1009.9mb 58f 67f
2:00 6 9 mph 1009.9mb 58f 67f
1:54 7 9 mph 1009.9mb 58f 67f
1:48 8 10 mph 1010.1mb 58f 67f
1:42 6 11 mph 1010.1mb 58f 67f
1:36 8 10 mph 1010.1mb 58f 68f
1:30 6 9 mph 1010.2mb 58f 67f
1:24 6 9 mph 1010.2mb 58f 67f
1:18 5 7 mph 1010.2mb 58f 67f
1:12 5 7 mph 1010.3mb 58f 68f
1:06 6 7 mph 1010.3mb 58f 68f
1:00 5 8 mph 1010.4mb 58f 68f
12:54 6 8 mph 1010.4mb 58f 68f
12:48 7 9 mph 1010.5mb 58f 69f
12:42 7 9 mph 1010.5mb 58f 69f
12:36 7 9 mph 1010.6mb 58f 69f
12:30 7 9 mph 1010.7mb 58f 69f
12:24 6 10 mph 1010.7mb 58f 69f
12:18 5 8 mph 1010.6mb 58f 69f
12:12 5 10 mph 1010.6mb 58f 70f
12:06 6 8 mph 1010.7mb 58f 70f
12:00 7 10 mph 1010.7mb 58f 70f
sáb 07/26 11:54 6 9 mph 1010.7mb 58f 70f
11:48 6 11 mph 1010.7mb 58f 70f
11:42 6 9 mph 1010.8mb 58f 70f
11:36 7 9 mph 1010.8mb 58f 70f
11:30 7 11 mph 1010.8mb 58f 70f
11:24 6 9 mph 1010.7mb 58f 70f
11:18 6 10 mph 1010.7mb 58f 71f
11:12 7 13 mph 1010.8mb 58f 71f
11:06 7 11 mph 1010.8mb 58f 71f
11:00 8 11 mph 1010.8mb 57f 71f
10:54 6 9 mph 1010.8mb 58f 69f
10:48 2 3 mph 1010.7mb 58f 65f
10:42  -  2 mph 1010.7mb 58f 65f
10:36 1 2 mph 1010.6mb 58f 64f
10:30 2
mph
1010.6mb 58f 64f
10:24 2
mph
1010.7mb 58f 64f
10:18 1 2 mph 1010.7mb 58f 64f
10:12 1 3 mph 1010.7mb 58f 64f
10:06 2 3 mph 1010.7mb 58f 66f
10:00 2 3 mph 1010.7mb 58f 65f
9:54  -  1 mph 1010.7mb 59f 65f
9:48 1
mph
1010.6mb 59f 65f
9:42  -  2 mph 1010.6mb 59f 65f
9:36 2
mph
1010.6mb 59f 65f
9:30 2
mph
1010.5mb 60f 65f
9:24 2
mph
1010.5mb 60f 65f
9:18 2 3 mph 1010.5mb 60f 65f
9:12 1 2 mph 1010.4mb 60f 65f
9:06  -  1 mph 1010.3mb 60f 65f
9:00 1 3 mph 1010.3mb 60f 65f
8:54 3
mph
1010.3mb 61f 65f
8:48 3
mph
1010.1mb 61f 65f
8:42 3
mph
1010mb 61f 65f
8:36 2
mph
1009.9mb 61f 66f
8:30 1 2 mph 1009.9mb 62f 67f
8:24  -  1 mph 1009.9mb 62f 67f
8:18  -  2 mph 1009.9mb 62f 67f
8:12 1 2 mph 1009.9mb 64f 68f
8:06 2 3 mph 1009.8mb 65f 68f
8:00 1 2 mph 1009.8mb 65f 68f
7:54 2 5 mph 1009.8mb 66f 68f
7:48 5 6 mph 1009.7mb 67f 68f
7:42 5 6 mph 1009.7mb 66f 68f
7:36 6 8 mph 1009.7mb 66f 68f
7:30 7 9 mph 1009.7mb 66f 68f
7:24 6
mph
1009.7mb 66f 68f
7:18 6
mph
1009.7mb 66f 69f
7:12 5 7 mph 1009.6mb 66f 69f
7:06 7 8 mph 1009.7mb 66f 68f
7:00 6 7 mph 1009.8mb 66f 69f
6:54 6 7 mph 1009.8mb 66f 69f
6:48 5 7 mph 1009.8mb 66f 70f
6:42 7 8 mph 1009.8mb 66f 70f
6:36 7 8 mph 1009.8mb 66f 69f
6:30 6 10 mph 1009.9mb 66f 69f
6:24 9 11 mph 1009.9mb 66f 68f
6:18 11 14 mph 1009.9mb 66f 68f
6:12 11 14 mph 1009.9mb 66f 69f
6:06 10 13 mph 1009.9mb 66f 69f
6:00 11 14 mph 1009.9mb 66f 69f
5:54 11 14 mph 1009.9mb 66f 69f
5:48 10 13 mph 1009.9mb 66f 69f
5:42 10 13 mph 1010mb 66f 69f
5:36 11 14 mph 1010.1mb 66f 68f
5:30 11 14 mph 1010.1mb 66f 68f
5:24 11 14 mph 1010.1mb 66f 69f
5:18 13 17 mph 1010.2mb 66f 69f
5:12 14 17 mph 1010.2mb 66f 68f
5:06 14 17 mph 1010.3mb 66f 68f
5:00 15 17 mph 1010.3mb 65f 68f
4:54 16 22 mph 1010.4mb 65f 68f
4:48 16 21 mph 1010.4mb 65f 69f
4:42 17 21 mph 1010.4mb 65f 69f
4:36 17 22 mph 1010.4mb 65f 70f
4:30 17 22 mph 1010.4mb 65f 69f
4:24 16 21 mph 1010.4mb 64f 69f
4:18 17 22 mph 1010.5mb 64f 68f
4:12 17 21 mph 1010.4mb 64f 68f
4:06 18 22 mph 1010.5mb 64f 68f
4:00 17 22 mph 1010.5mb 64f 69f
3:54 17 22 mph 1010.5mb 63f 69f
3:48 17 22 mph 1010.6mb 63f 69f
3:42 16 22 mph 1010.6mb 63f 69f
3:36 16 21 mph 1010.6mb 63f 69f
3:30 17 22 mph 1010.7mb 62f 69f
3:24 18 22 mph 1010.7mb 62f 69f
3:18 16 21 mph 1010.9mb 62f 69f
3:12 20 21 mph 1010.9mb 62f 69f
3:06 18 22 mph 1010.9mb 62f 70f
3:00 20 22 mph 1011mb 62f 70f
2:54 18 22 mph 1011.1mb 62f 70f
2:48 17 22 mph 1011.1mb 61f 70f
2:42 17 22 mph 1011.2mb 61f 70f
2:36 16 23 mph 1011.2mb 61f 69f
2:30 18 24 mph 1011.2mb 61f 70f
2:24 20 24 mph 1011.3mb 61f 70f
2:18 16 20 mph 1011.2mb 61f 69f
2:12 16 21 mph 1011.3mb 61f 69f
2:06 16 21 mph 1011.4mb 61f 68f
2:00 17 22 mph 1011.5mb 60f 67f
1:54 17 21 mph 1011.5mb 60f 68f
1:48 14 17 mph 1011.5mb 60f 68f
1:42 14 17 mph 1011.5mb 60f 67f
1:36 15 20 mph 1011.6mb 60f 67f
1:30 15 18 mph 1011.7mb 60f 68f
1:24 16 18 mph 1011.7mb 60f 67f
1:18 17 20 mph 1011.8mb 60f 67f
1:12 15 17 mph 1011.9mb 59f 67f
1:06 14 16 mph 1011.8mb 59f 68f
1:00 15 17 mph 1012mb 59f 68f
12:54 15 20 mph 1011.9mb 60f 69f
12:48 15 18 mph 1011.9mb 59f 69f
12:42 15 18 mph 1011.9mb 59f 70f
12:36 15 18 mph 1012mb 59f 69f
12:30 14 16 mph 1012.1mb 59f 69f
12:24 11 15 mph 1012.3mb 59f 69f
12:18 11 17 mph 1012.3mb 59f 69f
12:12 13 15 mph 1012.4mb 60f 69f
12:06 13 15 mph 1012.4mb 60f 68f
12:00 13 15 mph 1012.5mb 60f 68f
11:54 13 15 mph 1012.6mb 59f 68f
11:48 13 15 mph 1012.7mb 59f 68f
11:42 9 11 mph 1012.7mb 59f 69f
11:36 9 10 mph 1012.8mb 59f 68f
11:30 9 13 mph 1012.9mb 59f 68f
11:24 11 13 mph 1012.9mb 59f 68f
11:18 10 11 mph 1012.9mb 59f 67f
11:12 9 11 mph 1012.9mb 59f 67f
11:06 8 9 mph 1012.9mb 59f 69f
11:00 8 9 mph 1012.9mb 59f 69f
10:54 7 9 mph 1012.9mb 59f 69f
10:48 8 9 mph 1012.9mb 59f 68f
10:42 8 10 mph 1012.9mb 59f 69f
10:36 7
mph
1013mb 59f 69f
10:30 5 7 mph 1013mb 59f 71f
10:24 5 6 mph 1013mb 59f 72f
10:18 6
mph
1013.1mb 59f 71f
10:12 6
mph
1013.1mb 59f 72f
10:06 5 7 mph 1013.1mb 59f 72f
10:00 6 8 mph 1013.1mb 59f 72f
9:54 5 7 mph 1013.1mb 59f 72f
9:48 6 8 mph 1013.2mb 59f 71f
9:42 6 8 mph 1013.2mb 59f 71f
9:36 5 7 mph 1013.3mb 59f 72f
9:30 5 6 mph 1013.4mb 59f 72f
9:24 5 6 mph 1013.4mb 59f 72f
9:18 5
mph
1013.5mb 60f 72f
9:12 5
mph
1013.5mb 60f 71f
9:06 3 6 mph 1013.5mb 60f 70f
9:00 5 6 mph 1013.5mb 60f 69f
8:54 2 3 mph 1013.5mb 60f 69f
8:48 1 2 mph 1013.6mb 60f 69f
8:42 2 6 mph 1013.6mb 60f 68f
8:36 2 5 mph 1013.6mb 61f 68f
8:30 3 5 mph 1013.6mb 61f 67f
8:24 3 5 mph 1013.6mb 61f 67f
8:18 3 5 mph 1013.5mb 61f 67f
8:12 3 5 mph 1013.5mb 62f 67f
8:06 5
mph
1013.4mb 62f 67f
8:00 3 5 mph 1013.4mb 62f 67f
7:54 3 6 mph 1013.4mb 62f 67f
7:48 5 7 mph 1013.4mb 62f 66f
7:42 6 7 mph 1013.4mb 62f 66f
7:36 5 7 mph 1013.4mb 62f 66f
7:30 5 6 mph 1013.4mb 62f 66f
7:24 3 5 mph 1013.4mb 62f 65f
7:18 5 6 mph 1013.4mb 62f 65f
7:12 3 6 mph 1013.4mb 61f 65f
7:06 5
mph
1013.4mb 61f 65f
7:00 5
mph
1013.4mb 61f 64f
6:54 2
mph
1013.3mb 61f 65f
6:48  -  1 mph 1013.2mb 61f 65f
6:42 2 3 mph 1013.2mb 61f 64f
6:36 1 3 mph 1013.2mb 61f 63f
6:30 2 3 mph 1013.1mb 61f 62f
6:24 2
mph
1013.2mb 61f 62f
6:18  -  1 mph 1013.3mb 61f 63f
6:12 1 5 mph 1013.2mb 61f 62f
6:06 3 5 mph 1013.1mb 61f 63f
6:00 2 3 mph 1013.1mb 61f 63f
5:54 3 5 mph 1013.1mb 61f 63f
5:48 3 5 mph 1013.1mb 61f 63f
5:42 2 3 mph 1013mb 61f 62f
5:36 2 5 mph 1013mb 61f 62f
5:30 2
mph
1013mb 61f 62f
5:24 2 3 mph 1013mb 61f 62f
5:18 2 5 mph 1013mb 61f 62f
5:12 1 2 mph 1013mb 61f 62f
5:06 2 3 mph 1012.9mb 61f 63f
5:00 2 5 mph 1012.9mb 61f 63f
4:54 2 5 mph 1012.9mb 61f 63f
4:48 3 6 mph 1013mb 61f 63f
4:42 5 7 mph 1013mb 61f 63f
4:36 3 6 mph 1013mb 60f 63f
4:30 2 5 mph 1012.9mb 60f 63f
4:24 2 6 mph 1012.9mb 60f 63f
4:18 2 5 mph 1012.9mb 60f 63f
4:12 2 5 mph 1012.9mb 60f 63f
4:06 2 5 mph 1012.9mb 60f 64f
4:00 3 6 mph 1012.9mb 60f 64f
3:54 3 5 mph 1012.9mb 60f 64f
3:48 5 7 mph 1012.9mb 60f 64f
3:42 3 8 mph 1013mb 60f 64f
3:36 5 7 mph 1013mb 60f 64f
3:30 5 8 mph 1013mb 60f 64f
3:24 7 9 mph 1013mb 60f 64f
3:18 6 8 mph 1013mb 60f 65f
3:12 3 6 mph 1013mb 60f 64f
3:06 5 6 mph 1013mb 60f 64f
3:00 5 7 mph 1012.9mb 60f 64f
2:54 6 8 mph 1012.9mb 60f 64f
2:48 6 8 mph 1012.9mb 60f 64f
2:42 6 8 mph 1012.8mb 60f 65f
2:36 5 7 mph 1012.9mb 60f 65f
2:30 6 8 mph 1012.9mb 60f 65f
2:24 6 9 mph 1012.9mb 60f 65f
2:18 6 8 mph 1012.9mb 60f 65f
2:12 5 7 mph 1012.9mb 60f 65f
2:06 5 7 mph 1012.8mb 60f 65f
2:00 3 6 mph 1012.8mb 60f 65f
1:54 5 7 mph 1012.8mb 60f 65f
1:48  -  mph 1012.9mb 60f 66f
1:42  -  mph 1012.9mb 60f 66f
1:36  -  mph 1012.9mb 60f 66f
1:30 6 7 mph 1012.9mb 60f 66f
1:24 5 7 mph 1013mb 60f 66f
1:18 3 6 mph 1013mb 60f 66f
1:12 3 7 mph 1013mb 60f 66f
1:06 3 6 mph 1013.1mb 60f 66f
1:00 5 7 mph 1013.2mb 60f 66f
12:54 7 9 mph 1013.2mb 60f 66f
12:48 7 8 mph 1013.2mb 60f 66f
12:42 5 8 mph 1013.3mb 60f 66f
12:36 6 8 mph 1013.3mb 60f 67f
12:30 6 7 mph 1013.3mb 60f 67f
12:24 7 9 mph 1013.3mb 60f 67f
12:18 5 7 mph 1013.3mb 60f 67f
12:12 3 8 mph 1013.3mb 60f 67f
12:06 3 6 mph 1013.2mb 60f 66f
12:00 2 5 mph 1013.3mb 60f 67f
vie 07/25 11:54 3 5 mph 1013.2mb 60f 67f
11:48 3 6 mph 1013.2mb - 68f
11:42 6 8 mph 1013.3mb - 69f
11:36 5 7 mph 1013.3mb - 69f
11:30 5 7 mph 1013.3mb 60f 69f
11:24 5 7 mph 1013.3mb 60f 68f
11:18 3 6 mph 1013.3mb 60f 68f
11:12 3 7 mph 1013.3mb 60f 68f
11:06 5 8 mph 1013.2mb 60f 68f
11:00 5 7 mph 1013.2mb 60f 68f
10:54 5 6 mph 1013.2mb 60f 67f
10:48 2 5 mph 1013.2mb 60f -
10:42 2 5 mph 1013.2mb - 67f
10:36  -  mph 1013.2mb 60f 67f
10:30  -  mph - - 67f
10:24  -  1 mph - 60f -
10:18 1 2 mph - 60f 67f
10:12  -  mph - 60f 67f
10:06 2 3 mph 1013.1mb - 68f
10:00 2 3 mph 1013.1mb 60f 68f
9:54 3 5 mph 1013.1mb 60f 67f
9:48  -  mph 1013mb 60f 67f
9:42  -  mph 1013mb 60f 68f
9:36  -  mph 1012.9mb 60f 69f
9:30 2 5 mph 1012.9mb 60f 70f
9:24 3 5 mph 1012.8mb 60f 70f
9:18 2 5 mph 1012.8mb 59f 69f
9:12 5 6 mph 1012.8mb 59f 71f
9:06 3 5 mph 1012.7mb 59f 71f
9:00 3 6 mph 1012.7mb 59f 71f
8:54 3 6 mph 1012.6mb 59f 72f
8:48 3 6 mph 1012.6mb 59f 72f
8:42 3 5 mph 1012.5mb 59f 72f
8:36 2 6 mph 1012.5mb 59f 73f
8:30 5 7 mph 1012.4mb 59f 73f
8:24 5 7 mph 1012.4mb 59f 73f
8:18 5 7 mph 1012.3mb 60f 74f
8:12 6 7 mph 1012.3mb 60f 74f
8:06 5 7 mph 1012.2mb 60f 74f
8:00 5 7 mph 1012.2mb 60f 74f
7:54 3 6 mph 1012.1mb 60f 74f
7:48 3 6 mph 1012.1mb 60f 75f
7:42 3 6 mph 1012mb 61f 75f
7:36 3 7 mph 1012mb 62f 76f
7:30 5 7 mph 1012.1mb 63f 76f
7:24 5 6 mph 1012mb 63f 76f
7:18 3 6 mph 1012mb 64f 77f
7:12 5 7 mph 1011.8mb 65f 77f
7:06 3 7 mph 1011.8mb 65f 78f
7:00 3 6 mph 1011.9mb 66f 78f
6:54 5 7 mph 1011.9mb 65f 78f
6:48 5 7 mph 1011.8mb 65f 78f
6:42 6 10 mph 1011.8mb 65f 79f
6:36 6 8 mph 1011.8mb 65f 79f
6:30 5 9 mph 1011.7mb 64f 79f
6:24 6 8 mph 1011.7mb 64f 80f
6:18 7 9 mph 1011.6mb 64f 80f
6:12 5 8 mph 1011.6mb 64f 80f
6:06 6 11 mph 1011.5mb 64f 80f
6:00 9 13 mph 1011.5mb 64f 80f
5:54 7 14 mph 1011.5mb 64f 80f
5:48 7 14 mph 1011.5mb 63f 80f
5:42 7 16 mph 1011.4mb 63f 80f
5:36 7 10 mph 1011.3mb 63f 80f
5:30 7 13 mph 1011.3mb 63f 80f
5:24 6 11 mph 1011.3mb 63f 81f
5:18 6 10 mph 1011.3mb 63f 81f
5:12 7 11 mph 1011.3mb 63f 80f
5:06 8 13 mph 1011.4mb 63f 80f
5:00 6 11 mph 1011.5mb 63f 80f
4:54 6 11 mph 1011.5mb 63f 81f
4:48 7 13 mph 1011.4mb 63f 81f
4:42 8 13 mph 1011.5mb 63f 81f
4:36 9 14 mph 1011.5mb 63f 81f
4:30 9 14 mph 1011.5mb 63f 80f
4:24 9 14 mph 1011.5mb 63f 80f
4:18 9 14 mph 1011.5mb 62f 80f
4:12 8 13 mph 1011.5mb 62f 81f
4:06 10 16 mph 1011.6mb 62f 80f
4:00 6 10 mph 1011.6mb 62f 81f
3:54 6 14 mph 1011.7mb 62f 80f
3:48 9 14 mph 1011.8mb 62f 80f
3:42 8 14 mph 1011.8mb 62f 80f
3:36 6 11 mph 1011.8mb 62f 80f
3:30 8 13 mph 1011.8mb 62f 80f
3:24 6 9 mph 1011.8mb 62f 80f
3:18 8 13 mph 1011.8mb 62f 80f
3:12 9 13 mph 1011.7mb 62f 80f
3:06 7 13 mph 1011.7mb 62f 80f
3:00 9 14 mph 1011.7mb 62f 79f
2:54 7 14 mph 1011.7mb 62f 80f
2:48 8 13 mph 1011.7mb 61f 79f
2:42 9 13 mph 1011.7mb 61f 80f
2:36 6 9 mph 1011.8mb 61f 79f
2:30 6 16 mph 1011.9mb 61f 79f
2:24 10 15 mph 1011.7mb 61f 79f
2:18 6 11 mph 1011.8mb 61f 79f
2:12 7 15 mph 1011.9mb 61f 78f
2:06 9 14 mph 1011.9mb 60f 79f
2:00 8 11 mph 1012.1mb 60f 79f
1:54 11 15 mph 1012.1mb 60f 78f
1:48 5 9 mph 1012.1mb 60f 78f
1:42 9 13 mph 1012.2mb 60f 77f
1:36 6 10 mph 1012.2mb 60f 75f
1:30 7 11 mph 1012.2mb 60f 77f
1:24 8 14 mph 1012mb 60f 77f
1:18 7 14 mph 1012.1mb 60f 77f
1:12 9 14 mph 1012.1mb 60f 79f
1:06 10 13 mph 1012.2mb 60f 77f
1:00 8 14 mph 1012.2mb 60f 77f
12:54 5 7 mph 1012.3mb 60f 77f
12:48 5 8 mph 1012.4mb 60f 77f
12:42 5 11 mph 1012.4mb 60f 78f
12:36 7 10 mph 1012.6mb 60f 77f
12:30 6 8 mph 1012.7mb 59f 76f
12:24 6 9 mph 1012.8mb 59f 75f
12:18 3 10 mph 1012.8mb 59f 73f
12:12 9 10 mph 1012.9mb 59f 73f
12:06 5 9 mph 1012.9mb 59f 76f
12:00 7 9 mph 1012.9mb 59f 76f
11:54 3 7 mph 1013mb 59f 77f
11:48 6 11 mph 1013.1mb 59f 76f
11:42 3 9 mph 1013.1mb 59f 76f
11:36 7 11 mph 1013.2mb 59f 75f
11:30 6 8 mph 1013.2mb 59f 76f
11:24 1 8 mph 1013.3mb 59f 75f
11:18 6 8 mph 1013.4mb 59f 72f
11:12 5 6 mph 1013.4mb 59f 73f
11:06 6 7 mph 1013.5mb 59f 72f
11:00 5 6 mph 1013.6mb 59f 71f
10:54 7 8 mph 1013.6mb 59f 71f
10:48 6 7 mph 1013.6mb 59f 72f
10:42 6 7 mph 1013.7mb 59f 71f
10:36 5 6 mph 1013.6mb 59f 71f
10:30 2 5 mph 1013.6mb 59f 71f
10:24 6 8 mph 1013.6mb 59f 70f
10:18 7 8 mph 1013.5mb 59f 69f
10:12 6 7 mph 1013.6mb 59f 71f
10:06 6 7 mph 1013.6mb 59f 71f
10:00 2 7 mph 1013.5mb 59f 72f
9:54 5 6 mph 1013.5mb 59f 72f
9:48 3 9 mph 1013.4mb 59f 71f
9:42 5 7 mph 1013.4mb 59f 71f
9:36 2 5 mph 1013.4mb 59f 71f
9:30 2 5 mph 1013.4mb 59f 71f
9:24 1 5 mph 1013.3mb 59f 71f
9:18 3 6 mph 1013.4mb 59f 70f
9:12 3 6 mph 1013.4mb 59f 70f
9:06 2 5 mph 1013.4mb 59f 69f
9:00 1 5 mph 1013.4mb 59f 69f
8:54 2 3 mph 1013.3mb 59f 69f
8:48 2 3 mph 1013.3mb 59f 69f
8:42 2 5 mph 1013.3mb 59f 68f
8:36 2 3 mph 1013.3mb 59f 68f
8:30 2 5 mph 1013.3mb 58f 67f
8:24 3 5 mph 1013.3mb 59f 67f
8:18 5 8 mph 1013.2mb 59f 66f
8:12 6 8 mph 1013.2mb 59f 66f
8:06 6 8 mph 1013.2mb 59f 66f
8:00 6 9 mph 1013.2mb 59f 65f
7:54 6 9 mph 1013.2mb 59f 65f
7:48 6 8 mph 1013.1mb 59f 65f
7:42 6 8 mph 1013.1mb 60f 64f
7:36 8 11 mph 1013.1mb 60f 64f
7:30 7 10 mph 1013.1mb 61f 63f
7:24 8 10 mph 1013.1mb 61f 63f
7:18 7 10 mph 1013.1mb 62f 63f
7:12 7 10 mph 1013.1mb 62f 62f
7:06 6 9 mph 1013.1mb 62f 62f
7:00 6 8 mph 1013mb 62f 61f
6:54 5 7 mph 1012.9mb 62f 61f
6:48 6 8 mph 1012.9mb 62f 60f
6:42 6 9 mph 1012.8mb 62f 60f
6:36 5 8 mph 1012.8mb 61f 60f
6:30 5 7 mph 1012.8mb 61f 60f
6:24 5 7 mph 1012.8mb 61f 59f
6:18 3 6 mph 1012.8mb 61f 59f
6:12 6 8 mph 1012.7mb 61f 59f
6:06 6 10 mph 1012.7mb 61f 59f
6:00 6 9 mph 1012.6mb 61f 58f
5:54 6 9 mph 1012.5mb 61f 58f
5:48 6 9 mph 1012.5mb 61f 58f
5:42 6 8 mph 1012.5mb 61f 58f
5:36 6 7 mph 1012.4mb 61f 57f
5:30 7 8 mph 1012.4mb 61f 57f
5:24 7 8 mph 1012.4mb 61f 57f
5:18 8 10 mph 1012.4mb 60f 57f
5:12 8 9 mph 1012.3mb 60f 57f
5:06 8 10 mph 1012.4mb 60f 58f
5:00 9 11 mph 1012.4mb 60f 58f
4:54 9 10 mph 1012.3mb 60f 58f
4:48 8 10 mph 1012.3mb 60f 57f
4:42 7 8 mph 1012.3mb 60f 57f
4:36 6 8 mph 1012.3mb 60f 57f
4:30 7 8 mph 1012.3mb 60f 58f
4:24 6 8 mph 1012.2mb 60f 58f
4:18 7 9 mph 1012.2mb 60f 58f
4:12 7 9 mph 1012.1mb 60f 58f
4:06 7 8 mph 1012.1mb 60f 58f
4:00 6 7 mph 1012.1mb 60f 58f
3:54 6 7 mph 1012.1mb 60f 58f
3:48 6
mph
1012mb 60f 59f
3:42 5 6 mph 1012mb 60f 59f
3:36 3 6 mph 1011.9mb 60f 59f
3:30 3 5 mph 1012.1mb 60f 59f
3:24 2 3 mph 1012.1mb 60f 59f
3:18 2 3 mph 1012mb 60f 59f
3:12 2 5 mph 1012mb 60f 59f
3:06 3 5 mph 1012mb 59f 59f
3:00 3 6 mph 1012mb 59f 59f
2:54 5 6 mph 1012mb 59f 59f
2:48 6 7 mph 1011.9mb 59f 59f
2:42 5 6 mph 1011.9mb 59f 60f